sensor_id;sensor_type;location;lat;lon;timestamp;temperature;humidity
50955;DHT22;36966;48.064;-0.792;2024-03-08T00:00:11;18.20;39.60
50955;DHT22;36966;48.064;-0.792;2024-03-08T00:02:34;18.20;39.70
50955;DHT22;36966;48.064;-0.792;2024-03-08T00:04:53;18.10;39.70
50955;DHT22;36966;48.064;-0.792;2024-03-08T00:07:12;18.10;39.70
50955;DHT22;36966;48.064;-0.792;2024-03-08T00:09:32;18.10;39.70
50955;DHT22;36966;48.064;-0.792;2024-03-08T00:11:51;18.10;39.60
50955;DHT22;36966;48.064;-0.792;2024-03-08T00:14:11;18.10;39.70
50955;DHT22;36966;48.064;-0.792;2024-03-08T00:16:30;18.10;39.70
50955;DHT22;36966;48.064;-0.792;2024-03-08T00:18:49;18.10;39.70
50955;DHT22;36966;48.064;-0.792;2024-03-08T00:21:09;18.00;39.70
50955;DHT22;36966;48.064;-0.792;2024-03-08T00:23:29;18.10;39.70
50955;DHT22;36966;48.064;-0.792;2024-03-08T00:25:48;18.10;39.80
50955;DHT22;36966;48.064;-0.792;2024-03-08T00:28:07;18.00;39.80
50955;DHT22;36966;48.064;-0.792;2024-03-08T00:30:27;18.00;39.90
50955;DHT22;36966;48.064;-0.792;2024-03-08T00:32:46;18.10;39.90
50955;DHT22;36966;48.064;-0.792;2024-03-08T00:35:05;18.00;39.90
50955;DHT22;36966;48.064;-0.792;2024-03-08T00:37:28;18.00;39.90
50955;DHT22;36966;48.064;-0.792;2024-03-08T00:39:47;18.00;40.00
50955;DHT22;36966;48.064;-0.792;2024-03-08T00:42:08;18.00;40.00
50955;DHT22;36966;48.064;-0.792;2024-03-08T00:44:27;18.00;39.90
50955;DHT22;36966;48.064;-0.792;2024-03-08T00:46:47;18.00;40.00
50955;DHT22;36966;48.064;-0.792;2024-03-08T00:49:06;18.00;40.00
50955;DHT22;36966;48.064;-0.792;2024-03-08T00:51:25;18.00;40.00
50955;DHT22;36966;48.064;-0.792;2024-03-08T00:53:45;18.00;40.00
50955;DHT22;36966;48.064;-0.792;2024-03-08T00:56:04;18.00;40.10
50955;DHT22;36966;48.064;-0.792;2024-03-08T00:58:23;18.00;40.00
50955;DHT22;36966;48.064;-0.792;2024-03-08T01:00:43;18.00;40.10
50955;DHT22;36966;48.064;-0.792;2024-03-08T01:03:02;18.00;40.10
50955;DHT22;36966;48.064;-0.792;2024-03-08T01:05:23;18.00;40.00
50955;DHT22;36966;48.064;-0.792;2024-03-08T01:07:44;18.00;40.10
50955;DHT22;36966;48.064;-0.792;2024-03-08T01:10:05;17.90;40.10
50955;DHT22;36966;48.064;-0.792;2024-03-08T01:12:28;17.90;40.10
50955;DHT22;36966;48.064;-0.792;2024-03-08T01:14:48;18.00;40.10
50955;DHT22;36966;48.064;-0.792;2024-03-08T01:17:07;17.90;40.10
50955;DHT22;36966;48.064;-0.792;2024-03-08T01:19:26;17.90;40.00
50955;DHT22;36966;48.064;-0.792;2024-03-08T01:21:46;17.90;40.10
50955;DHT22;36966;48.064;-0.792;2024-03-08T01:24:05;17.90;40.00
50955;DHT22;36966;48.064;-0.792;2024-03-08T01:26:24;17.90;40.00
50955;DHT22;36966;48.064;-0.792;2024-03-08T01:28:44;17.90;40.00
50955;DHT22;36966;48.064;-0.792;2024-03-08T01:31:03;17.90;40.10
50955;DHT22;36966;48.064;-0.792;2024-03-08T01:33:23;17.90;40.10
50955;DHT22;36966;48.064;-0.792;2024-03-08T01:35:44;17.90;39.90
50955;DHT22;36966;48.064;-0.792;2024-03-08T01:38:03;17.90;40.10
50955;DHT22;36966;48.064;-0.792;2024-03-08T01:40:24;17.90;39.90
50955;DHT22;36966;48.064;-0.792;2024-03-08T01:42:43;17.90;40.00
50955;DHT22;36966;48.064;-0.792;2024-03-08T01:45:02;17.90;39.90
50955;DHT22;36966;48.064;-0.792;2024-03-08T01:47:21;17.90;40.00
50955;DHT22;36966;48.064;-0.792;2024-03-08T01:49:44;17.90;40.00
50955;DHT22;36966;48.064;-0.792;2024-03-08T01:52:03;17.90;40.00
50955;DHT22;36966;48.064;-0.792;2024-03-08T01:54:22;17.90;39.90
50955;DHT22;36966;48.064;-0.792;2024-03-08T01:56:42;17.80;40.00
50955;DHT22;36966;48.064;-0.792;2024-03-08T01:59:01;17.90;40.00
50955;DHT22;36966;48.064;-0.792;2024-03-08T02:01:20;17.80;40.00
50955;DHT22;36966;48.064;-0.792;2024-03-08T02:03:40;17.80;40.00
50955;DHT22;36966;48.064;-0.792;2024-03-08T02:05:59;17.80;40.10
50955;DHT22;36966;48.064;-0.792;2024-03-08T02:08:19;17.90;40.00
50955;DHT22;36966;48.064;-0.792;2024-03-08T02:10:38;17.80;40.00
50955;DHT22;36966;48.064;-0.792;2024-03-08T02:12:58;17.80;40.10
50955;DHT22;36966;48.064;-0.792;2024-03-08T02:15:17;17.80;40.20
50955;DHT22;36966;48.064;-0.792;2024-03-08T02:17:36;17.80;40.20
50955;DHT22;36966;48.064;-0.792;2024-03-08T02:19:55;17.80;40.10
50955;DHT22;36966;48.064;-0.792;2024-03-08T02:22:14;17.80;40.10
50955;DHT22;36966;48.064;-0.792;2024-03-08T02:24:34;17.80;40.10
50955;DHT22;36966;48.064;-0.792;2024-03-08T02:26:53;17.70;40.20
50955;DHT22;36966;48.064;-0.792;2024-03-08T02:29:13;17.80;40.20
50955;DHT22;36966;48.064;-0.792;2024-03-08T02:31:33;17.80;40.20
50955;DHT22;36966;48.064;-0.792;2024-03-08T02:33:53;17.70;40.30
50955;DHT22;36966;48.064;-0.792;2024-03-08T02:36:12;17.80;40.30
50955;DHT22;36966;48.064;-0.792;2024-03-08T02:38:31;17.80;40.30
50955;DHT22;36966;48.064;-0.792;2024-03-08T02:40:51;17.80;40.20
50955;DHT22;36966;48.064;-0.792;2024-03-08T02:43:11;17.70;40.20
50955;DHT22;36966;48.064;-0.792;2024-03-08T02:45:30;17.70;40.20
50955;DHT22;36966;48.064;-0.792;2024-03-08T02:47:49;17.70;40.20
50955;DHT22;36966;48.064;-0.792;2024-03-08T02:50:09;17.70;40.30
50955;DHT22;36966;48.064;-0.792;2024-03-08T02:52:28;17.70;40.20
50955;DHT22;36966;48.064;-0.792;2024-03-08T02:54:47;17.70;40.30
50955;DHT22;36966;48.064;-0.792;2024-03-08T02:57:07;17.70;40.30
50955;DHT22;36966;48.064;-0.792;2024-03-08T02:59:26;17.70;40.30
50955;DHT22;36966;48.064;-0.792;2024-03-08T03:01:45;17.70;40.30
50955;DHT22;36966;48.064;-0.792;2024-03-08T03:04:05;17.70;40.30
50955;DHT22;36966;48.064;-0.792;2024-03-08T03:06:24;17.70;40.30
50955;DHT22;36966;48.064;-0.792;2024-03-08T03:08:45;17.70;40.30
50955;DHT22;36966;48.064;-0.792;2024-03-08T03:11:04;17.70;40.30
50955;DHT22;36966;48.064;-0.792;2024-03-08T03:13:25;17.70;40.40
50955;DHT22;36966;48.064;-0.792;2024-03-08T03:15:45;17.70;40.40
50955;DHT22;36966;48.064;-0.792;2024-03-08T03:18:05;17.70;40.40
50955;DHT22;36966;48.064;-0.792;2024-03-08T03:20:26;17.70;40.40
50955;DHT22;36966;48.064;-0.792;2024-03-08T03:22:51;17.70;40.30
50955;DHT22;36966;48.064;-0.792;2024-03-08T03:25:11;17.70;40.40
50955;DHT22;36966;48.064;-0.792;2024-03-08T03:27:32;17.70;40.30
50955;DHT22;36966;48.064;-0.792;2024-03-08T03:29:51;17.70;40.40
50955;DHT22;36966;48.064;-0.792;2024-03-08T03:32:11;17.70;40.30
50955;DHT22;36966;48.064;-0.792;2024-03-08T03:34:30;17.70;40.30
50955;DHT22;36966;48.064;-0.792;2024-03-08T03:36:50;17.70;40.40
50955;DHT22;36966;48.064;-0.792;2024-03-08T03:39:09;17.70;40.30
50955;DHT22;36966;48.064;-0.792;2024-03-08T03:41:31;17.70;40.30
50955;DHT22;36966;48.064;-0.792;2024-03-08T03:43:51;17.60;40.40
50955;DHT22;36966;48.064;-0.792;2024-03-08T03:46:10;17.60;40.50
50955;DHT22;36966;48.064;-0.792;2024-03-08T03:48:29;17.60;40.40
50955;DHT22;36966;48.064;-0.792;2024-03-08T03:50:48;17.70;40.40
50955;DHT22;36966;48.064;-0.792;2024-03-08T03:53:09;17.60;40.30
50955;DHT22;36966;48.064;-0.792;2024-03-08T03:55:28;17.60;40.40
50955;DHT22;36966;48.064;-0.792;2024-03-08T03:57:47;17.60;40.40
50955;DHT22;36966;48.064;-0.792;2024-03-08T04:00:06;17.70;40.40
50955;DHT22;36966;48.064;-0.792;2024-03-08T04:02:28;17.60;40.50
50955;DHT22;36966;48.064;-0.792;2024-03-08T04:04:48;17.60;40.50
50955;DHT22;36966;48.064;-0.792;2024-03-08T04:07:08;17.60;40.40
50955;DHT22;36966;48.064;-0.792;2024-03-08T04:09:28;17.60;40.50
50955;DHT22;36966;48.064;-0.792;2024-03-08T04:11:48;17.60;40.40
50955;DHT22;36966;48.064;-0.792;2024-03-08T04:14:07;17.60;40.50
50955;DHT22;36966;48.064;-0.792;2024-03-08T04:16:27;17.60;40.50
50955;DHT22;36966;48.064;-0.792;2024-03-08T04:18:46;17.60;40.40
50955;DHT22;36966;48.064;-0.792;2024-03-08T04:21:06;17.60;40.40
50955;DHT22;36966;48.064;-0.792;2024-03-08T04:23:29;17.60;40.50
50955;DHT22;36966;48.064;-0.792;2024-03-08T04:25:48;17.50;40.50
50955;DHT22;36966;48.064;-0.792;2024-03-08T04:28:08;17.60;40.40
50955;DHT22;36966;48.064;-0.792;2024-03-08T04:30:29;17.50;40.50
50955;DHT22;36966;48.064;-0.792;2024-03-08T04:32:49;17.50;40.50
50955;DHT22;36966;48.064;-0.792;2024-03-08T04:35:08;17.50;40.50
50955;DHT22;36966;48.064;-0.792;2024-03-08T04:37:27;17.50;40.50
50955;DHT22;36966;48.064;-0.792;2024-03-08T04:39:48;17.50;40.50
50955;DHT22;36966;48.064;-0.792;2024-03-08T04:42:08;17.50;40.40
50955;DHT22;36966;48.064;-0.792;2024-03-08T04:44:29;17.50;40.50
50955;DHT22;36966;48.064;-0.792;2024-03-08T04:46:48;17.50;40.50
50955;DHT22;36966;48.064;-0.792;2024-03-08T04:49:08;17.50;40.60
50955;DHT22;36966;48.064;-0.792;2024-03-08T04:51:27;17.50;40.10
50955;DHT22;36966;48.064;-0.792;2024-03-08T04:53:46;17.40;40.80
50955;DHT22;36966;48.064;-0.792;2024-03-08T04:56:06;17.40;40.80
50955;DHT22;36966;48.064;-0.792;2024-03-08T04:58:26;17.30;40.60
50955;DHT22;36966;48.064;-0.792;2024-03-08T05:00:45;17.40;40.70
50955;DHT22;36966;48.064;-0.792;2024-03-08T05:03:04;17.40;40.60
50955;DHT22;36966;48.064;-0.792;2024-03-08T05:05:24;17.40;40.60
50955;DHT22;36966;48.064;-0.792;2024-03-08T05:07:44;17.30;40.70
50955;DHT22;36966;48.064;-0.792;2024-03-08T05:10:04;17.40;40.70
50955;DHT22;36966;48.064;-0.792;2024-03-08T05:12:24;17.40;40.60
50955;DHT22;36966;48.064;-0.792;2024-03-08T05:14:45;17.40;40.50
50955;DHT22;36966;48.064;-0.792;2024-03-08T05:17:05;17.40;40.60
50955;DHT22;36966;48.064;-0.792;2024-03-08T05:19:26;17.40;40.50
50955;DHT22;36966;48.064;-0.792;2024-03-08T05:21:48;17.40;40.60
50955;DHT22;36966;48.064;-0.792;2024-03-08T05:24:08;17.40;40.60
50955;DHT22;36966;48.064;-0.792;2024-03-08T05:26:29;17.40;40.60
50955;DHT22;36966;48.064;-0.792;2024-03-08T05:28:49;17.30;40.60
50955;DHT22;36966;48.064;-0.792;2024-03-08T05:31:08;17.30;40.50
50955;DHT22;36966;48.064;-0.792;2024-03-08T05:33:28;17.30;40.60
50955;DHT22;36966;48.064;-0.792;2024-03-08T05:35:47;17.30;40.70
50955;DHT22;36966;48.064;-0.792;2024-03-08T05:38:06;17.30;40.60
50955;DHT22;36966;48.064;-0.792;2024-03-08T05:40:26;17.30;40.70
50955;DHT22;36966;48.064;-0.792;2024-03-08T05:42:45;17.30;40.60
50955;DHT22;36966;48.064;-0.792;2024-03-08T05:45:05;17.30;40.60
50955;DHT22;36966;48.064;-0.792;2024-03-08T05:47:29;17.30;40.70
50955;DHT22;36966;48.064;-0.792;2024-03-08T05:49:48;17.30;40.70
50955;DHT22;36966;48.064;-0.792;2024-03-08T05:52:07;17.30;40.70
50955;DHT22;36966;48.064;-0.792;2024-03-08T05:54:26;17.30;40.70
50955;DHT22;36966;48.064;-0.792;2024-03-08T05:56:46;17.30;40.70
50955;DHT22;36966;48.064;-0.792;2024-03-08T05:59:06;17.30;40.60
50955;DHT22;36966;48.064;-0.792;2024-03-08T06:01:26;17.30;40.60
50955;DHT22;36966;48.064;-0.792;2024-03-08T06:03:45;17.30;40.70
50955;DHT22;36966;48.064;-0.792;2024-03-08T06:06:05;17.30;40.70
50955;DHT22;36966;48.064;-0.792;2024-03-08T06:08:24;17.30;40.60
50955;DHT22;36966;48.064;-0.792;2024-03-08T06:10:48;17.30;40.80
50955;DHT22;36966;48.064;-0.792;2024-03-08T06:13:11;17.30;40.80
50955;DHT22;36966;48.064;-0.792;2024-03-08T06:15:31;17.20;40.70
50955;DHT22;36966;48.064;-0.792;2024-03-08T06:17:50;17.30;40.80
50955;DHT22;36966;48.064;-0.792;2024-03-08T06:20:11;17.30;40.70
50955;DHT22;36966;48.064;-0.792;2024-03-08T06:22:32;17.30;40.80
50955;DHT22;36966;48.064;-0.792;2024-03-08T06:24:51;17.20;40.80
50955;DHT22;36966;48.064;-0.792;2024-03-08T06:27:10;17.20;40.70
50955;DHT22;36966;48.064;-0.792;2024-03-08T06:29:29;17.20;40.90
50955;DHT22;36966;48.064;-0.792;2024-03-08T06:31:49;17.20;40.70
50955;DHT22;36966;48.064;-0.792;2024-03-08T06:34:08;17.20;40.80
50955;DHT22;36966;48.064;-0.792;2024-03-08T06:36:28;17.20;40.70
50955;DHT22;36966;48.064;-0.792;2024-03-08T06:38:47;17.20;40.80
50955;DHT22;36966;48.064;-0.792;2024-03-08T06:41:06;17.20;40.80
50955;DHT22;36966;48.064;-0.792;2024-03-08T06:43:26;17.20;40.70
50955;DHT22;36966;48.064;-0.792;2024-03-08T06:45:51;17.20;40.70
50955;DHT22;36966;48.064;-0.792;2024-03-08T06:48:11;17.20;40.80
50955;DHT22;36966;48.064;-0.792;2024-03-08T06:50:31;17.20;40.70
50955;DHT22;36966;48.064;-0.792;2024-03-08T06:52:50;17.20;40.70
50955;DHT22;36966;48.064;-0.792;2024-03-08T06:55:12;17.20;40.80
50955;DHT22;36966;48.064;-0.792;2024-03-08T06:57:31;17.20;40.90
50955;DHT22;36966;48.064;-0.792;2024-03-08T06:59:50;17.20;40.90
50955;DHT22;36966;48.064;-0.792;2024-03-08T07:02:11;17.20;40.70
50955;DHT22;36966;48.064;-0.792;2024-03-08T07:04:30;17.20;40.80
50955;DHT22;36966;48.064;-0.792;2024-03-08T07:06:50;17.20;40.80
50955;DHT22;36966;48.064;-0.792;2024-03-08T07:09:09;17.20;41.00
50955;DHT22;36966;48.064;-0.792;2024-03-08T07:11:30;17.20;40.90
50955;DHT22;36966;48.064;-0.792;2024-03-08T07:13:50;17.20;40.90
50955;DHT22;36966;48.064;-0.792;2024-03-08T07:16:09;17.20;40.80
50955;DHT22;36966;48.064;-0.792;2024-03-08T07:18:31;17.20;40.80
50955;DHT22;36966;48.064;-0.792;2024-03-08T07:20:50;17.20;40.80
50955;DHT22;36966;48.064;-0.792;2024-03-08T07:23:10;17.20;40.80
50955;DHT22;36966;48.064;-0.792;2024-03-08T07:25:29;17.20;40.80
50955;DHT22;36966;48.064;-0.792;2024-03-08T07:27:52;17.20;40.80
50955;DHT22;36966;48.064;-0.792;2024-03-08T07:30:11;17.20;40.80
50955;DHT22;36966;48.064;-0.792;2024-03-08T07:32:31;17.20;40.70
50955;DHT22;36966;48.064;-0.792;2024-03-08T07:34:51;17.20;40.80
50955;DHT22;36966;48.064;-0.792;2024-03-08T07:37:10;17.20;40.80
50955;DHT22;36966;48.064;-0.792;2024-03-08T07:39:30;17.10;40.80
50955;DHT22;36966;48.064;-0.792;2024-03-08T07:41:49;17.20;40.80
50955;DHT22;36966;48.064;-0.792;2024-03-08T07:44:11;17.20;40.80
50955;DHT22;36966;48.064;-0.792;2024-03-08T07:46:33;17.20;40.80
50955;DHT22;36966;48.064;-0.792;2024-03-08T07:48:56;17.20;40.70
50955;DHT22;36966;48.064;-0.792;2024-03-08T07:51:16;17.20;40.80
50955;DHT22;36966;48.064;-0.792;2024-03-08T07:53:37;17.20;40.80
50955;DHT22;36966;48.064;-0.792;2024-03-08T07:55:56;17.20;40.80
50955;DHT22;36966;48.064;-0.792;2024-03-08T07:58:16;17.20;40.80
50955;DHT22;36966;48.064;-0.792;2024-03-08T08:00:36;17.20;40.80
50955;DHT22;36966;48.064;-0.792;2024-03-08T08:02:55;17.20;40.80
50955;DHT22;36966;48.064;-0.792;2024-03-08T08:05:15;17.20;40.70
50955;DHT22;36966;48.064;-0.792;2024-03-08T08:07:36;17.20;40.70
50955;DHT22;36966;48.064;-0.792;2024-03-08T08:09:55;17.20;40.70
50955;DHT22;36966;48.064;-0.792;2024-03-08T08:12:15;17.20;40.80
50955;DHT22;36966;48.064;-0.792;2024-03-08T08:14:35;17.20;40.70
50955;DHT22;36966;48.064;-0.792;2024-03-08T08:16:54;17.20;40.70
50955;DHT22;36966;48.064;-0.792;2024-03-08T08:19:14;17.20;40.70
50955;DHT22;36966;48.064;-0.792;2024-03-08T08:21:34;17.20;40.70
50955;DHT22;36966;48.064;-0.792;2024-03-08T08:23:55;17.20;40.70
50955;DHT22;36966;48.064;-0.792;2024-03-08T08:26:15;17.20;40.70
50955;DHT22;36966;48.064;-0.792;2024-03-08T08:28:34;17.20;40.70
50955;DHT22;36966;48.064;-0.792;2024-03-08T08:30:53;17.20;40.70
50955;DHT22;36966;48.064;-0.792;2024-03-08T08:33:12;17.30;40.70
50955;DHT22;36966;48.064;-0.792;2024-03-08T08:35:32;17.30;40.70
50955;DHT22;36966;48.064;-0.792;2024-03-08T08:37:52;17.30;40.70
50955;DHT22;36966;48.064;-0.792;2024-03-08T08:40:11;17.30;40.80
50955;DHT22;36966;48.064;-0.792;2024-03-08T08:42:33;17.30;40.80
50955;DHT22;36966;48.064;-0.792;2024-03-08T08:44:52;17.30;40.80
50955;DHT22;36966;48.064;-0.792;2024-03-08T08:47:11;17.30;40.80
50955;DHT22;36966;48.064;-0.792;2024-03-08T08:49:31;17.30;40.80
50955;DHT22;36966;48.064;-0.792;2024-03-08T08:51:51;17.40;40.80
50955;DHT22;36966;48.064;-0.792;2024-03-08T08:54:10;17.30;40.80
50955;DHT22;36966;48.064;-0.792;2024-03-08T08:56:30;17.30;40.80
50955;DHT22;36966;48.064;-0.792;2024-03-08T08:58:49;17.30;40.80
50955;DHT22;36966;48.064;-0.792;2024-03-08T09:01:09;17.30;40.80
50955;DHT22;36966;48.064;-0.792;2024-03-08T09:03:31;17.30;40.80
50955;DHT22;36966;48.064;-0.792;2024-03-08T09:05:50;17.30;40.70
50955;DHT22;36966;48.064;-0.792;2024-03-08T09:08:10;17.30;40.70
50955;DHT22;36966;48.064;-0.792;2024-03-08T09:10:29;17.30;40.70
50955;DHT22;36966;48.064;-0.792;2024-03-08T09:12:48;17.40;40.70
50955;DHT22;36966;48.064;-0.792;2024-03-08T09:15:07;17.40;40.70
50955;DHT22;36966;48.064;-0.792;2024-03-08T09:17:30;17.30;40.70
50955;DHT22;36966;48.064;-0.792;2024-03-08T09:19:49;17.30;40.80
50955;DHT22;36966;48.064;-0.792;2024-03-08T09:22:08;17.30;40.80
50955;DHT22;36966;48.064;-0.792;2024-03-08T09:24:28;17.30;40.70
50955;DHT22;36966;48.064;-0.792;2024-03-08T09:26:47;17.30;40.80
50955;DHT22;36966;48.064;-0.792;2024-03-08T09:29:06;17.30;40.70
50955;DHT22;36966;48.064;-0.792;2024-03-08T09:31:25;17.30;40.70
50955;DHT22;36966;48.064;-0.792;2024-03-08T09:33:45;17.30;40.70
50955;DHT22;36966;48.064;-0.792;2024-03-08T09:36:05;17.40;40.70
50955;DHT22;36966;48.064;-0.792;2024-03-08T09:38:24;17.30;40.70
50955;DHT22;36966;48.064;-0.792;2024-03-08T09:40:44;17.30;40.70
50955;DHT22;36966;48.064;-0.792;2024-03-08T09:43:03;17.30;40.70
50955;DHT22;36966;48.064;-0.792;2024-03-08T09:45:22;17.30;40.70
50955;DHT22;36966;48.064;-0.792;2024-03-08T09:47:44;17.30;40.70
50955;DHT22;36966;48.064;-0.792;2024-03-08T09:50:03;17.30;40.70
50955;DHT22;36966;48.064;-0.792;2024-03-08T09:52:22;17.30;40.70
50955;DHT22;36966;48.064;-0.792;2024-03-08T09:54:41;17.30;40.70
50955;DHT22;36966;48.064;-0.792;2024-03-08T09:57:06;17.40;40.60
50955;DHT22;36966;48.064;-0.792;2024-03-08T09:59:27;17.30;40.60
50955;DHT22;36966;48.064;-0.792;2024-03-08T10:01:46;17.30;40.70
50955;DHT22;36966;48.064;-0.792;2024-03-08T10:04:06;17.30;40.70
50955;DHT22;36966;48.064;-0.792;2024-03-08T10:06:25;17.40;40.70
50955;DHT22;36966;48.064;-0.792;2024-03-08T10:08:44;17.40;40.70
50955;DHT22;36966;48.064;-0.792;2024-03-08T10:11:04;17.40;40.70
50955;DHT22;36966;48.064;-0.792;2024-03-08T10:13:23;17.30;40.70
50955;DHT22;36966;48.064;-0.792;2024-03-08T10:15:44;17.40;40.70
50955;DHT22;36966;48.064;-0.792;2024-03-08T10:18:03;17.40;40.70
50955;DHT22;36966;48.064;-0.792;2024-03-08T10:20:23;17.40;40.70
50955;DHT22;36966;48.064;-0.792;2024-03-08T10:22:42;17.40;40.70
50955;DHT22;36966;48.064;-0.792;2024-03-08T10:25:03;17.40;40.70
50955;DHT22;36966;48.064;-0.792;2024-03-08T10:27:24;17.50;40.70
50955;DHT22;36966;48.064;-0.792;2024-03-08T10:29:48;17.40;40.70
50955;DHT22;36966;48.064;-0.792;2024-03-08T10:32:07;17.50;40.70
50955;DHT22;36966;48.064;-0.792;2024-03-08T10:34:27;17.50;40.70
50955;DHT22;36966;48.064;-0.792;2024-03-08T10:36:46;17.50;40.80
50955;DHT22;36966;48.064;-0.792;2024-03-08T10:39:21;17.50;40.80
50955;DHT22;36966;48.064;-0.792;2024-03-08T10:41:40;17.50;40.80
50955;DHT22;36966;48.064;-0.792;2024-03-08T10:44:07;17.50;40.90
50955;DHT22;36966;48.064;-0.792;2024-03-08T10:46:35;17.40;40.90
50955;DHT22;36966;48.064;-0.792;2024-03-08T10:48:57;17.50;40.90
50955;DHT22;36966;48.064;-0.792;2024-03-08T10:51:18;17.50;40.90
50955;DHT22;36966;48.064;-0.792;2024-03-08T10:53:38;17.50;40.90
50955;DHT22;36966;48.064;-0.792;2024-03-08T10:56:00;17.50;40.90
50955;DHT22;36966;48.064;-0.792;2024-03-08T10:58:21;17.50;40.90
50955;DHT22;36966;48.064;-0.792;2024-03-08T11:00:40;17.50;40.90
50955;DHT22;36966;48.064;-0.792;2024-03-08T11:03:00;17.50;41.00
50955;DHT22;36966;48.064;-0.792;2024-03-08T11:05:32;17.50;41.00
50955;DHT22;36966;48.064;-0.792;2024-03-08T11:07:54;17.50;41.00
50955;DHT22;36966;48.064;-0.792;2024-03-08T11:10:19;17.60;41.00
50955;DHT22;36966;48.064;-0.792;2024-03-08T11:12:39;17.50;41.10
50955;DHT22;36966;48.064;-0.792;2024-03-08T11:15:02;17.50;41.10
50955;DHT22;36966;48.064;-0.792;2024-03-08T11:19:55;17.60;41.10
50955;DHT22;36966;48.064;-0.792;2024-03-08T11:22:20;17.60;41.10
50955;DHT22;36966;48.064;-0.792;2024-03-08T11:24:40;17.60;41.20
50955;DHT22;36966;48.064;-0.792;2024-03-08T11:27:00;17.60;41.10
50955;DHT22;36966;48.064;-0.792;2024-03-08T11:32:14;17.70;41.20
50955;DHT22;36966;48.064;-0.792;2024-03-08T11:34:33;17.70;41.20
50955;DHT22;36966;48.064;-0.792;2024-03-08T11:36:53;17.70;41.20
50955;DHT22;36966;48.064;-0.792;2024-03-08T11:39:16;17.70;41.20
50955;DHT22;36966;48.064;-0.792;2024-03-08T11:41:36;17.70;41.30
50955;DHT22;36966;48.064;-0.792;2024-03-08T11:44:04;17.70;41.30
50955;DHT22;36966;48.064;-0.792;2024-03-08T11:46:26;17.70;41.30
50955;DHT22;36966;48.064;-0.792;2024-03-08T11:48:47;17.70;41.30
50955;DHT22;36966;48.064;-0.792;2024-03-08T11:51:06;17.70;41.30
50955;DHT22;36966;48.064;-0.792;2024-03-08T11:53:27;17.70;41.40
50955;DHT22;36966;48.064;-0.792;2024-03-08T11:55:46;17.70;41.40
50955;DHT22;36966;48.064;-0.792;2024-03-08T11:58:07;17.70;41.40
50955;DHT22;36966;48.064;-0.792;2024-03-08T12:00:27;17.70;41.50
50955;DHT22;36966;48.064;-0.792;2024-03-08T12:03:05;17.70;41.50
50955;DHT22;36966;48.064;-0.792;2024-03-08T12:05:25;17.70;41.50
50955;DHT22;36966;48.064;-0.792;2024-03-08T12:07:44;17.80;41.50
50955;DHT22;36966;48.064;-0.792;2024-03-08T12:10:18;17.80;41.50
50955;DHT22;36966;48.064;-0.792;2024-03-08T12:12:39;17.80;41.50
50955;DHT22;36966;48.064;-0.792;2024-03-08T12:14:58;17.80;41.60
50955;DHT22;36966;48.064;-0.792;2024-03-08T12:17:17;17.80;41.60
50955;DHT22;36966;48.064;-0.792;2024-03-08T12:19:36;17.80;41.60
50955;DHT22;36966;48.064;-0.792;2024-03-08T12:21:57;17.80;41.70
50955;DHT22;36966;48.064;-0.792;2024-03-08T12:24:16;17.90;41.70
50955;DHT22;36966;48.064;-0.792;2024-03-08T12:26:38;17.90;41.80
50955;DHT22;36966;48.064;-0.792;2024-03-08T12:29:18;18.00;41.70
50955;DHT22;36966;48.064;-0.792;2024-03-08T12:31:39;17.90;41.90
50955;DHT22;36966;48.064;-0.792;2024-03-08T12:34:00;18.00;41.90
50955;DHT22;36966;48.064;-0.792;2024-03-08T12:36:19;17.90;41.90
50955;DHT22;36966;48.064;-0.792;2024-03-08T12:38:39;17.90;41.90
50955;DHT22;36966;48.064;-0.792;2024-03-08T12:40:58;17.90;41.90
50955;DHT22;36966;48.064;-0.792;2024-03-08T12:43:18;18.00;41.90
50955;DHT22;36966;48.064;-0.792;2024-03-08T12:45:37;18.00;41.90
50955;DHT22;36966;48.064;-0.792;2024-03-08T12:47:57;17.90;42.00
50955;DHT22;36966;48.064;-0.792;2024-03-08T12:50:16;18.00;42.10
50955;DHT22;36966;48.064;-0.792;2024-03-08T12:52:35;18.00;42.00
50955;DHT22;36966;48.064;-0.792;2024-03-08T12:54:55;18.00;42.10
50955;DHT22;36966;48.064;-0.792;2024-03-08T12:57:15;18.00;42.20
50955;DHT22;36966;48.064;-0.792;2024-03-08T12:59:35;18.10;42.10
50955;DHT22;36966;48.064;-0.792;2024-03-08T13:01:54;18.10;42.20
50955;DHT22;36966;48.064;-0.792;2024-03-08T13:04:17;18.10;42.10
50955;DHT22;36966;48.064;-0.792;2024-03-08T13:06:37;18.10;42.20
50955;DHT22;36966;48.064;-0.792;2024-03-08T13:08:57;18.10;42.20
50955;DHT22;36966;48.064;-0.792;2024-03-08T13:11:17;18.10;42.40
50955;DHT22;36966;48.064;-0.792;2024-03-08T13:13:36;18.10;42.40
50955;DHT22;36966;48.064;-0.792;2024-03-08T13:15:55;18.20;42.40
50955;DHT22;36966;48.064;-0.792;2024-03-08T13:18:15;18.20;42.40
50955;DHT22;36966;48.064;-0.792;2024-03-08T13:20:35;18.20;42.40
50955;DHT22;36966;48.064;-0.792;2024-03-08T13:22:56;18.20;42.40
50955;DHT22;36966;48.064;-0.792;2024-03-08T13:25:17;18.20;43.10
50955;DHT22;36966;48.064;-0.792;2024-03-08T13:27:42;18.20;43.30
50955;DHT22;36966;48.064;-0.792;2024-03-08T13:30:08;18.20;43.50
50955;DHT22;36966;48.064;-0.792;2024-03-08T13:32:31;18.20;43.70
50955;DHT22;36966;48.064;-0.792;2024-03-08T13:34:50;18.20;43.70
50955;DHT22;36966;48.064;-0.792;2024-03-08T13:37:10;18.20;43.60
50955;DHT22;36966;48.064;-0.792;2024-03-08T13:39:30;18.20;43.50
50955;DHT22;36966;48.064;-0.792;2024-03-08T13:41:54;18.20;43.70
50955;DHT22;36966;48.064;-0.792;2024-03-08T13:44:13;18.10;43.90
50955;DHT22;36966;48.064;-0.792;2024-03-08T13:46:32;18.20;43.80
50955;DHT22;36966;48.064;-0.792;2024-03-08T13:48:52;18.30;44.50
50955;DHT22;36966;48.064;-0.792;2024-03-08T13:51:12;18.20;44.10
50955;DHT22;36966;48.064;-0.792;2024-03-08T13:53:34;18.20;44.00
50955;DHT22;36966;48.064;-0.792;2024-03-08T13:55:54;17.90;44.40
50955;DHT22;36966;48.064;-0.792;2024-03-08T13:58:13;17.80;44.80
50955;DHT22;36966;48.064;-0.792;2024-03-08T14:00:32;18.00;45.60
50955;DHT22;36966;48.064;-0.792;2024-03-08T14:02:52;18.10;45.20
50955;DHT22;36966;48.064;-0.792;2024-03-08T14:05:13;18.20;44.70
50955;DHT22;36966;48.064;-0.792;2024-03-08T14:07:33;18.20;44.50
50955;DHT22;36966;48.064;-0.792;2024-03-08T14:09:52;18.20;44.30
50955;DHT22;36966;48.064;-0.792;2024-03-08T14:12:12;18.20;44.20
50955;DHT22;36966;48.064;-0.792;2024-03-08T14:14:33;18.20;44.10
50955;DHT22;36966;48.064;-0.792;2024-03-08T14:16:54;18.20;44.10
50955;DHT22;36966;48.064;-0.792;2024-03-08T14:19:17;18.30;43.90
50955;DHT22;36966;48.064;-0.792;2024-03-08T14:21:36;18.20;43.90
50955;DHT22;36966;48.064;-0.792;2024-03-08T14:23:58;18.20;43.90
50955;DHT22;36966;48.064;-0.792;2024-03-08T14:26:17;18.20;43.90
50955;DHT22;36966;48.064;-0.792;2024-03-08T14:28:36;18.20;44.10
50955;DHT22;36966;48.064;-0.792;2024-03-08T14:30:58;18.10;44.40
50955;DHT22;36966;48.064;-0.792;2024-03-08T14:33:17;18.20;44.20
50955;DHT22;36966;48.064;-0.792;2024-03-08T14:35:36;18.20;44.10